sensor_id;sensor_type;location;lat;lon;timestamp;P1;durP1;ratioP1;P2;durP2;ratioP2
55150;SDS011;41041;43.162;20.538;2023-05-07T00:00:53;9.50;;;4.03;;
55150;SDS011;41041;43.162;20.538;2023-05-07T00:03:20;28.38;;;7.60;;
55150;SDS011;41041;43.162;20.538;2023-05-07T00:05:46;81.90;;;10.65;;
55150;SDS011;41041;43.162;20.538;2023-05-07T00:08:13;34.83;;;6.55;;
55150;SDS011;41041;43.162;20.538;2023-05-07T00:10:39;8.25;;;4.55;;
55150;SDS011;41041;43.162;20.538;2023-05-07T00:13:05;63.78;;;6.65;;
55150;SDS011;41041;43.162;20.538;2023-05-07T00:15:31;16.45;;;4.68;;
55150;SDS011;41041;43.162;20.538;2023-05-07T00:17:57;7.72;;;3.75;;
55150;SDS011;41041;43.162;20.538;2023-05-07T00:20:24;6.82;;;3.83;;
55150;SDS011;41041;43.162;20.538;2023-05-07T00:22:50;15.98;;;3.97;;
55150;SDS011;41041;43.162;20.538;2023-05-07T00:25:16;14.00;;;3.95;;
55150;SDS011;41041;43.162;20.538;2023-05-07T00:27:44;10.65;;;3.97;;
55150;SDS011;41041;43.162;20.538;2023-05-07T00:30:10;7.70;;;4.15;;
55150;SDS011;41041;43.162;20.538;2023-05-07T00:32:37;9.98;;;3.80;;
55150;SDS011;41041;43.162;20.538;2023-05-07T00:35:04;6.35;;;4.00;;
55150;SDS011;41041;43.162;20.538;2023-05-07T00:37:30;15.13;;;3.95;;
55150;SDS011;41041;43.162;20.538;2023-05-07T00:39:56;6.90;;;4.07;;
55150;SDS011;41041;43.162;20.538;2023-05-07T00:42:22;8.32;;;3.67;;
55150;SDS011;41041;43.162;20.538;2023-05-07T00:44:49;20.23;;;4.50;;
55150;SDS011;41041;43.162;20.538;2023-05-07T00:47:15;5.32;;;3.80;;
55150;SDS011;41041;43.162;20.538;2023-05-07T00:49:42;5.75;;;3.75;;
55150;SDS011;41041;43.162;20.538;2023-05-07T00:52:13;9.35;;;3.90;;
55150;SDS011;41041;43.162;20.538;2023-05-07T00:54:40;8.20;;;3.63;;
55150;SDS011;41041;43.162;20.538;2023-05-07T00:57:06;5.07;;;3.70;;
55150;SDS011;41041;43.162;20.538;2023-05-07T00:59:32;13.20;;;3.90;;
55150;SDS011;41041;43.162;20.538;2023-05-07T01:01:59;5.47;;;3.80;;
55150;SDS011;41041;43.162;20.538;2023-05-07T01:04:26;6.88;;;4.20;;
55150;SDS011;41041;43.162;20.538;2023-05-07T01:06:52;7.18;;;3.78;;
55150;SDS011;41041;43.162;20.538;2023-05-07T01:09:36;6.32;;;4.30;;
55150;SDS011;41041;43.162;20.538;2023-05-07T01:12:03;25.33;;;4.55;;
55150;SDS011;41041;43.162;20.538;2023-05-07T01:14:29;7.70;;;3.78;;
55150;SDS011;41041;43.162;20.538;2023-05-07T01:16:56;31.83;;;8.85;;
55150;SDS011;41041;43.162;20.538;2023-05-07T01:19:22;13.98;;;4.57;;
55150;SDS011;41041;43.162;20.538;2023-05-07T01:21:48;9.32;;;5.13;;
55150;SDS011;41041;43.162;20.538;2023-05-07T01:24:16;11.63;;;5.25;;
55150;SDS011;41041;43.162;20.538;2023-05-07T01:26:43;8.15;;;4.88;;
55150;SDS011;41041;43.162;20.538;2023-05-07T01:29:10;7.05;;;4.15;;
55150;SDS011;41041;43.162;20.538;2023-05-07T01:31:38;10.75;;;3.35;;
55150;SDS011;41041;43.162;20.538;2023-05-07T01:34:05;7.75;;;5.05;;
55150;SDS011;41041;43.162;20.538;2023-05-07T01:36:33;10.23;;;5.88;;
55150;SDS011;41041;43.162;20.538;2023-05-07T01:39:00;11.45;;;3.90;;
55150;SDS011;41041;43.162;20.538;2023-05-07T01:41:27;27.75;;;4.72;;
55150;SDS011;41041;43.162;20.538;2023-05-07T01:43:54;72.90;;;6.80;;
55150;SDS011;41041;43.162;20.538;2023-05-07T01:46:22;26.52;;;5.88;;
55150;SDS011;41041;43.162;20.538;2023-05-07T01:48:49;7.00;;;4.30;;
55150;SDS011;41041;43.162;20.538;2023-05-07T01:51:15;5.35;;;3.50;;
55150;SDS011;41041;43.162;20.538;2023-05-07T01:53:42;9.20;;;3.63;;
55150;SDS011;41041;43.162;20.538;2023-05-07T01:56:08;7.28;;;3.42;;
55150;SDS011;41041;43.162;20.538;2023-05-07T01:58:35;8.27;;;3.67;;
55150;SDS011;41041;43.162;20.538;2023-05-07T02:01:03;12.38;;;3.92;;
55150;SDS011;41041;43.162;20.538;2023-05-07T02:03:29;6.60;;;3.50;;
55150;SDS011;41041;43.162;20.538;2023-05-07T02:05:57;8.98;;;3.80;;
55150;SDS011;41041;43.162;20.538;2023-05-07T02:08:23;10.52;;;4.22;;
55150;SDS011;41041;43.162;20.538;2023-05-07T02:10:50;11.65;;;4.32;;
55150;SDS011;41041;43.162;20.538;2023-05-07T02:13:16;9.18;;;4.05;;
55150;SDS011;41041;43.162;20.538;2023-05-07T02:15:42;36.35;;;4.53;;
55150;SDS011;41041;43.162;20.538;2023-05-07T02:18:12;99.40;;;7.55;;
55150;SDS011;41041;43.162;20.538;2023-05-07T02:20:39;34.65;;;4.85;;
55150;SDS011;41041;43.162;20.538;2023-05-07T02:23:05;34.88;;;5.05;;
55150;SDS011;41041;43.162;20.538;2023-05-07T02:25:31;28.35;;;5.10;;
55150;SDS011;41041;43.162;20.538;2023-05-07T02:27:58;18.63;;;4.47;;
55150;SDS011;41041;43.162;20.538;2023-05-07T02:30:24;9.48;;;4.00;;
55150;SDS011;41041;43.162;20.538;2023-05-07T02:32:50;16.77;;;4.20;;
55150;SDS011;41041;43.162;20.538;2023-05-07T02:35:17;33.75;;;4.70;;
55150;SDS011;41041;43.162;20.538;2023-05-07T02:37:43;13.98;;;4.28;;
55150;SDS011;41041;43.162;20.538;2023-05-07T02:40:09;5.88;;;4.00;;
55150;SDS011;41041;43.162;20.538;2023-05-07T02:42:36;6.63;;;3.97;;
55150;SDS011;41041;43.162;20.538;2023-05-07T02:45:02;11.85;;;4.22;;
55150;SDS011;41041;43.162;20.538;2023-05-07T02:50:16;11.45;;;4.57;;
55150;SDS011;41041;43.162;20.538;2023-05-07T02:52:42;22.88;;;4.43;;
55150;SDS011;41041;43.162;20.538;2023-05-07T02:55:08;23.83;;;4.93;;
55150;SDS011;41041;43.162;20.538;2023-05-07T02:57:34;26.38;;;4.50;;
55150;SDS011;41041;43.162;20.538;2023-05-07T03:00:09;29.92;;;4.28;;
55150;SDS011;41041;43.162;20.538;2023-05-07T03:02:35;10.10;;;3.75;;
55150;SDS011;41041;43.162;20.538;2023-05-07T03:05:02;25.45;;;4.40;;
55150;SDS011;41041;43.162;20.538;2023-05-07T03:07:28;81.90;;;7.05;;
55150;SDS011;41041;43.162;20.538;2023-05-07T03:09:54;37.47;;;4.97;;
55150;SDS011;41041;43.162;20.538;2023-05-07T03:12:20;16.25;;;4.47;;
55150;SDS011;41041;43.162;20.538;2023-05-07T03:14:50;8.85;;;3.65;;
55150;SDS011;41041;43.162;20.538;2023-05-07T03:17:16;5.78;;;3.50;;
55150;SDS011;41041;43.162;20.538;2023-05-07T03:19:42;8.30;;;3.55;;
55150;SDS011;41041;43.162;20.538;2023-05-07T03:22:08;23.35;;;4.30;;
55150;SDS011;41041;43.162;20.538;2023-05-07T03:24:34;39.83;;;4.60;;
55150;SDS011;41041;43.162;20.538;2023-05-07T03:27:00;17.73;;;4.50;;
55150;SDS011;41041;43.162;20.538;2023-05-07T03:29:27;8.95;;;4.07;;
55150;SDS011;41041;43.162;20.538;2023-05-07T03:31:53;11.35;;;4.30;;
55150;SDS011;41041;43.162;20.538;2023-05-07T03:34:19;9.50;;;3.90;;
55150;SDS011;41041;43.162;20.538;2023-05-07T03:36:49;17.13;;;4.07;;
55150;SDS011;41041;43.162;20.538;2023-05-07T03:39:15;30.92;;;4.63;;
55150;SDS011;41041;43.162;20.538;2023-05-07T03:41:51;30.40;;;5.07;;
55150;SDS011;41041;43.162;20.538;2023-05-07T03:44:17;19.55;;;5.80;;
55150;SDS011;41041;43.162;20.538;2023-05-07T03:46:43;17.83;;;4.40;;
55150;SDS011;41041;43.162;20.538;2023-05-07T03:49:09;17.15;;;4.10;;
55150;SDS011;41041;43.162;20.538;2023-05-07T03:51:35;24.17;;;4.90;;
55150;SDS011;41041;43.162;20.538;2023-05-07T03:54:01;35.80;;;4.85;;
55150;SDS011;41041;43.162;20.538;2023-05-07T03:56:28;19.23;;;4.55;;
55150;SDS011;41041;43.162;20.538;2023-05-07T03:59:02;112.65;;;7.07;;
55150;SDS011;41041;43.162;20.538;2023-05-07T04:01:29;14.35;;;3.67;;
55150;SDS011;41041;43.162;20.538;2023-05-07T04:03:55;29.95;;;4.55;;
55150;SDS011;41041;43.162;20.538;2023-05-07T04:06:21;43.33;;;5.20;;
55150;SDS011;41041;43.162;20.538;2023-05-07T04:08:47;14.90;;;4.07;;
55150;SDS011;41041;43.162;20.538;2023-05-07T04:11:13;17.80;;;4.07;;
55150;SDS011;41041;43.162;20.538;2023-05-07T04:13:39;8.10;;;4.10;;
55150;SDS011;41041;43.162;20.538;2023-05-07T04:16:05;17.60;;;4.10;;
55150;SDS011;41041;43.162;20.538;2023-05-07T04:18:32;10.43;;;4.00;;
55150;SDS011;41041;43.162;20.538;2023-05-07T04:20:58;6.57;;;3.85;;
55150;SDS011;41041;43.162;20.538;2023-05-07T04:23:24;14.60;;;4.28;;
55150;SDS011;41041;43.162;20.538;2023-05-07T04:25:50;11.40;;;4.20;;
55150;SDS011;41041;43.162;20.538;2023-05-07T04:28:16;10.75;;;4.10;;
55150;SDS011;41041;43.162;20.538;2023-05-07T04:30:42;10.55;;;4.10;;
55150;SDS011;41041;43.162;20.538;2023-05-07T04:33:08;7.15;;;4.55;;
55150;SDS011;41041;43.162;20.538;2023-05-07T04:35:35;36.75;;;5.32;;
55150;SDS011;41041;43.162;20.538;2023-05-07T04:38:01;79.43;;;6.88;;
55150;SDS011;41041;43.162;20.538;2023-05-07T04:40:27;38.33;;;5.32;;
55150;SDS011;41041;43.162;20.538;2023-05-07T04:42:53;9.43;;;4.30;;
55150;SDS011;41041;43.162;20.538;2023-05-07T04:45:20;13.10;;;4.32;;
55150;SDS011;41041;43.162;20.538;2023-05-07T04:47:46;25.55;;;4.90;;
55150;SDS011;41041;43.162;20.538;2023-05-07T04:50:12;35.50;;;4.82;;
55150;SDS011;41041;43.162;20.538;2023-05-07T04:52:38;37.30;;;5.00;;
55150;SDS011;41041;43.162;20.538;2023-05-07T04:55:04;22.92;;;4.80;;
55150;SDS011;41041;43.162;20.538;2023-05-07T04:57:31;45.83;;;5.50;;
55150;SDS011;41041;43.162;20.538;2023-05-07T04:59:57;27.52;;;5.30;;
55150;SDS011;41041;43.162;20.538;2023-05-07T05:05:16;11.00;;;4.88;;
55150;SDS011;41041;43.162;20.538;2023-05-07T05:07:42;6.63;;;3.95;;
55150;SDS011;41041;43.162;20.538;2023-05-07T05:10:08;17.38;;;4.15;;
55150;SDS011;41041;43.162;20.538;2023-05-07T05:12:34;39.22;;;4.57;;
55150;SDS011;41041;43.162;20.538;2023-05-07T05:15:00;12.10;;;3.97;;
55150;SDS011;41041;43.162;20.538;2023-05-07T05:17:26;13.02;;;4.72;;
55150;SDS011;41041;43.162;20.538;2023-05-07T05:22:28;65.47;;;6.10;;
55150;SDS011;41041;43.162;20.538;2023-05-07T05:24:56;110.18;;;8.88;;
55150;SDS011;41041;43.162;20.538;2023-05-07T05:27:22;68.35;;;7.00;;
55150;SDS011;41041;43.162;20.538;2023-05-07T05:29:48;21.63;;;4.80;;
55150;SDS011;41041;43.162;20.538;2023-05-07T05:32:14;28.27;;;5.53;;
55150;SDS011;41041;43.162;20.538;2023-05-07T05:34:40;39.38;;;6.30;;
55150;SDS011;41041;43.162;20.538;2023-05-07T05:37:06;33.15;;;6.35;;
55150;SDS011;41041;43.162;20.538;2023-05-07T05:39:33;18.92;;;5.75;;
55150;SDS011;41041;43.162;20.538;2023-05-07T05:41:59;17.05;;;6.82;;
55150;SDS011;41041;43.162;20.538;2023-05-07T05:44:25;37.65;;;7.55;;
55150;SDS011;41041;43.162;20.538;2023-05-07T05:46:51;30.08;;;8.75;;
55150;SDS011;41041;43.162;20.538;2023-05-07T05:49:20;30.65;;;12.13;;
55150;SDS011;41041;43.162;20.538;2023-05-07T05:51:46;31.77;;;13.65;;
55150;SDS011;41041;43.162;20.538;2023-05-07T05:54:12;33.45;;;12.55;;
55150;SDS011;41041;43.162;20.538;2023-05-07T05:56:38;81.22;;;21.88;;
55150;SDS011;41041;43.162;20.538;2023-05-07T05:59:05;39.58;;;15.75;;
55150;SDS011;41041;43.162;20.538;2023-05-07T06:01:31;41.88;;;20.40;;
55150;SDS011;41041;43.162;20.538;2023-05-07T06:03:57;24.83;;;14.18;;
55150;SDS011;41041;43.162;20.538;2023-05-07T06:06:23;28.63;;;10.43;;
55150;SDS011;41041;43.162;20.538;2023-05-07T06:08:49;29.92;;;9.23;;
55150;SDS011;41041;43.162;20.538;2023-05-07T06:11:15;21.30;;;9.68;;
55150;SDS011;41041;43.162;20.538;2023-05-07T06:16:11;27.52;;;12.85;;
55150;SDS011;41041;43.162;20.538;2023-05-07T06:18:37;33.95;;;16.15;;
55150;SDS011;41041;43.162;20.538;2023-05-07T06:21:04;20.80;;;12.98;;
55150;SDS011;41041;43.162;20.538;2023-05-07T06:23:30;23.55;;;12.90;;
55150;SDS011;41041;43.162;20.538;2023-05-07T06:25:56;19.35;;;9.27;;
55150;SDS011;41041;43.162;20.538;2023-05-07T06:28:22;21.52;;;9.70;;
55150;SDS011;41041;43.162;20.538;2023-05-07T06:30:48;24.23;;;7.43;;
55150;SDS011;41041;43.162;20.538;2023-05-07T06:33:15;15.40;;;5.22;;
55150;SDS011;41041;43.162;20.538;2023-05-07T06:35:41;11.02;;;4.95;;
55150;SDS011;41041;43.162;20.538;2023-05-07T06:38:07;15.20;;;5.90;;
55150;SDS011;41041;43.162;20.538;2023-05-07T06:40:33;12.30;;;5.75;;
55150;SDS011;41041;43.162;20.538;2023-05-07T06:42:59;19.98;;;8.73;;
55150;SDS011;41041;43.162;20.538;2023-05-07T06:45:25;14.85;;;11.95;;
55150;SDS011;41041;43.162;20.538;2023-05-07T06:47:52;12.55;;;6.82;;
55150;SDS011;41041;43.162;20.538;2023-05-07T06:50:18;12.90;;;6.07;;
55150;SDS011;41041;43.162;20.538;2023-05-07T06:52:44;25.17;;;8.85;;
55150;SDS011;41041;43.162;20.538;2023-05-07T06:55:10;10.93;;;5.47;;
55150;SDS011;41041;43.162;20.538;2023-05-07T06:57:36;16.65;;;7.95;;
55150;SDS011;41041;43.162;20.538;2023-05-07T07:00:02;15.23;;;8.82;;
55150;SDS011;41041;43.162;20.538;2023-05-07T07:02:29;15.55;;;7.63;;
55150;SDS011;41041;43.162;20.538;2023-05-07T07:04:55;21.63;;;7.43;;
55150;SDS011;41041;43.162;20.538;2023-05-07T07:07:21;12.40;;;6.80;;
55150;SDS011;41041;43.162;20.538;2023-05-07T07:09:48;18.95;;;7.75;;
55150;SDS011;41041;43.162;20.538;2023-05-07T07:12:16;18.17;;;7.93;;
55150;SDS011;41041;43.162;20.538;2023-05-07T07:14:43;19.58;;;8.63;;
55150;SDS011;41041;43.162;20.538;2023-05-07T07:17:09;23.45;;;8.60;;
55150;SDS011;41041;43.162;20.538;2023-05-07T07:19:35;18.50;;;8.60;;
55150;SDS011;41041;43.162;20.538;2023-05-07T07:22:02;16.73;;;8.07;;
55150;SDS011;41041;43.162;20.538;2023-05-07T07:24:28;16.02;;;6.97;;
55150;SDS011;41041;43.162;20.538;2023-05-07T07:26:55;22.05;;;10.85;;
55150;SDS011;41041;43.162;20.538;2023-05-07T07:29:21;19.50;;;7.78;;
55150;SDS011;41041;43.162;20.538;2023-05-07T07:31:48;13.75;;;6.55;;
55150;SDS011;41041;43.162;20.538;2023-05-07T07:34:15;13.27;;;5.32;;
55150;SDS011;41041;43.162;20.538;2023-05-07T07:36:41;33.17;;;8.13;;
55150;SDS011;41041;43.162;20.538;2023-05-07T07:39:07;10.77;;;5.13;;
55150;SDS011;41041;43.162;20.538;2023-05-07T07:44:27;10.45;;;4.70;;
55150;SDS011;41041;43.162;20.538;2023-05-07T07:46:54;13.40;;;5.40;;
55150;SDS011;41041;43.162;20.538;2023-05-07T07:49:20;12.98;;;5.25;;
55150;SDS011;41041;43.162;20.538;2023-05-07T07:51:46;9.80;;;4.50;;
55150;SDS011;41041;43.162;20.538;2023-05-07T07:54:14;10.40;;;4.25;;
55150;SDS011;41041;43.162;20.538;2023-05-07T07:59:45;10.25;;;4.80;;
55150;SDS011;41041;43.162;20.538;2023-05-07T08:02:11;10.30;;;4.05;;
55150;SDS011;41041;43.162;20.538;2023-05-07T08:04:40;18.52;;;4.28;;
55150;SDS011;41041;43.162;20.538;2023-05-07T08:07:08;13.02;;;4.03;;
55150;SDS011;41041;43.162;20.538;2023-05-07T08:09:34;13.32;;;4.30;;
55150;SDS011;41041;43.162;20.538;2023-05-07T08:12:01;9.43;;;4.53;;
55150;SDS011;41041;43.162;20.538;2023-05-07T08:14:27;21.48;;;7.57;;
55150;SDS011;41041;43.162;20.538;2023-05-07T08:16:53;15.93;;;6.70;;
55150;SDS011;41041;43.162;20.538;2023-05-07T08:19:20;14.27;;;5.20;;
55150;SDS011;41041;43.162;20.538;2023-05-07T08:21:46;12.02;;;7.70;;
55150;SDS011;41041;43.162;20.538;2023-05-07T08:24:13;6.32;;;3.40;;
55150;SDS011;41041;43.162;20.538;2023-05-07T08:26:39;6.13;;;3.33;;
55150;SDS011;41041;43.162;20.538;2023-05-07T08:29:06;9.73;;;3.53;;
55150;SDS011;41041;43.162;20.538;2023-05-07T08:31:32;5.97;;;3.70;;
55150;SDS011;41041;43.162;20.538;2023-05-07T08:33:58;11.05;;;4.40;;
55150;SDS011;41041;43.162;20.538;2023-05-07T08:36:26;7.78;;;3.60;;
55150;SDS011;41041;43.162;20.538;2023-05-07T08:38:52;16.52;;;6.25;;
55150;SDS011;41041;43.162;20.538;2023-05-07T08:41:19;11.02;;;5.53;;
55150;SDS011;41041;43.162;20.538;2023-05-07T08:46:31;7.65;;;3.15;;
55150;SDS011;41041;43.162;20.538;2023-05-07T08:48:57;6.72;;;3.15;;
55150;SDS011;41041;43.162;20.538;2023-05-07T08:51:26;7.28;;;3.20;;
55150;SDS011;41041;43.162;20.538;2023-05-07T08:53:53;5.95;;;2.90;;
55150;SDS011;41041;43.162;20.538;2023-05-07T08:56:19;8.00;;;3.22;;
55150;SDS011;41041;43.162;20.538;2023-05-07T08:58:46;6.53;;;3.25;;
55150;SDS011;41041;43.162;20.538;2023-05-07T09:01:16;9.57;;;3.10;;
55150;SDS011;41041;43.162;20.538;2023-05-07T09:03:44;7.60;;;3.08;;
55150;SDS011;41041;43.162;20.538;2023-05-07T09:06:11;7.72;;;2.95;;
55150;SDS011;41041;43.162;20.538;2023-05-07T09:08:54;7.32;;;3.20;;
55150;SDS011;41041;43.162;20.538;2023-05-07T09:11:21;4.80;;;2.90;;
55150;SDS011;41041;43.162;20.538;2023-05-07T09:13:48;4.38;;;2.90;;
55150;SDS011;41041;43.162;20.538;2023-05-07T09:16:14;8.15;;;3.03;;
55150;SDS011;41041;43.162;20.538;2023-05-07T09:18:41;5.28;;;2.47;;
55150;SDS011;41041;43.162;20.538;2023-05-07T09:21:11;4.50;;;2.50;;
55150;SDS011;41041;43.162;20.538;2023-05-07T09:26:06;5.47;;;2.78;;
55150;SDS011;41041;43.162;20.538;2023-05-07T09:28:40;5.47;;;2.53;;
55150;SDS011;41041;43.162;20.538;2023-05-07T09:31:09;5.35;;;2.60;;
55150;SDS011;41041;43.162;20.538;2023-05-07T09:33:36;9.80;;;2.88;;
55150;SDS011;41041;43.162;20.538;2023-05-07T09:36:02;10.15;;;2.90;;
55150;SDS011;41041;43.162;20.538;2023-05-07T09:38:29;6.13;;;2.88;;
55150;SDS011;41041;43.162;20.538;2023-05-07T09:41:03;6.65;;;3.10;;
55150;SDS011;41041;43.162;20.538;2023-05-07T09:43:34;4.00;;;2.50;;
55150;SDS011;41041;43.162;20.538;2023-05-07T09:46:06;5.03;;;2.40;;
55150;SDS011;41041;43.162;20.538;2023-05-07T09:48:36;7.90;;;3.10;;
55150;SDS011;41041;43.162;20.538;2023-05-07T09:51:25;3.97;;;2.63;;
55150;SDS011;41041;43.162;20.538;2023-05-07T09:53:54;4.47;;;2.50;;
55150;SDS011;41041;43.162;20.538;2023-05-07T09:56:22;5.80;;;2.30;;
55150;SDS011;41041;43.162;20.538;2023-05-07T09:58:48;5.35;;;2.60;;
55150;SDS011;41041;43.162;20.538;2023-05-07T10:01:15;6.32;;;2.33;;
55150;SDS011;41041;43.162;20.538;2023-05-07T10:03:44;4.05;;;2.20;;
55150;SDS011;41041;43.162;20.538;2023-05-07T10:06:11;11.73;;;2.65;;
55150;SDS011;41041;43.162;20.538;2023-05-07T10:08:40;5.32;;;2.35;;
55150;SDS011;41041;43.162;20.538;2023-05-07T10:11:06;7.35;;;2.47;;
55150;SDS011;41041;43.162;20.538;2023-05-07T10:13:32;6.07;;;3.28;;
55150;SDS011;41041;43.162;20.538;2023-05-07T10:16:05;9.52;;;3.70;;
55150;SDS011;41041;43.162;20.538;2023-05-07T10:18:31;68.68;;;5.72;;
55150;SDS011;41041;43.162;20.538;2023-05-07T10:21:10;80.47;;;6.22;;
55150;SDS011;41041;43.162;20.538;2023-05-07T10:23:37;27.83;;;3.17;;
55150;SDS011;41041;43.162;20.538;2023-05-07T10:26:05;21.15;;;3.20;;
55150;SDS011;41041;43.162;20.538;2023-05-07T10:28:34;10.48;;;2.83;;
55150;SDS011;41041;43.162;20.538;2023-05-07T10:31:11;10.10;;;2.60;;
55150;SDS011;41041;43.162;20.538;2023-05-07T10:33:41;4.25;;;2.42;;
55150;SDS011;41041;43.162;20.538;2023-05-07T10:36:08;3.97;;;2.22;;
55150;SDS011;41041;43.162;20.538;2023-05-07T10:38:35;6.13;;;2.60;;
55150;SDS011;41041;43.162;20.538;2023-05-07T10:41:06;4.97;;;2.80;;
55150;SDS011;41041;43.162;20.538;2023-05-07T10:43:39;10.20;;;2.85;;
55150;SDS011;41041;43.162;20.538;2023-05-07T10:51:37;6.22;;;3.60;;
55150;SDS011;41041;43.162;20.538;2023-05-07T10:56:40;29.67;;;17.48;;
55150;SDS011;41041;43.162;20.538;2023-05-07T11:01:56;4.30;;;2.30;;
55150;SDS011;41041;43.162;20.538;2023-05-07T11:04:32;3.35;;;2.22;;
55150;SDS011;41041;43.162;20.538;2023-05-07T11:15:04;10.63;;;2.50;;
55150;SDS011;41041;43.162;20.538;2023-05-07T11:17:31;12.80;;;2.58;;
55150;SDS011;41041;43.162;20.538;2023-05-07T11:19:59;16.55;;;3.50;;
55150;SDS011;41041;43.162;20.538;2023-05-07T11:24:59;7.38;;;2.63;;
55150;SDS011;41041;43.162;20.538;2023-05-07T11:27:26;4.20;;;2.33;;
55150;SDS011;41041;43.162;20.538;2023-05-07T11:29:52;6.60;;;2.20;;
55150;SDS011;41041;43.162;20.538;2023-05-07T11:32:25;235.82;;;14.20;;
55150;SDS011;41041;43.162;20.538;2023-05-07T11:34:55;110.30;;;7.50;;
55150;SDS011;41041;43.162;20.538;2023-05-07T11:37:22;64.20;;;5.53;;
55150;SDS011;41041;43.162;20.538;2023-05-07T11:39:50;103.00;;;8.07;;
55150;SDS011;41041;43.162;20.538;2023-05-07T11:42:27;19.80;;;3.22;;
55150;SDS011;41041;43.162;20.538;2023-05-07T11:44:57;43.30;;;4.32;;
55150;SDS011;41041;43.162;20.538;2023-05-07T11:47:29;57.97;;;5.03;;
55150;SDS011;41041;43.162;20.538;2023-05-07T11:49:56;15.10;;;2.92;;
55150;SDS011;41041;43.162;20.538;2023-05-07T11:52:23;8.85;;;2.47;;
55150;SDS011;41041;43.162;20.538;2023-05-07T11:54:53;5.70;;;2.50;;
55150;SDS011;41041;43.162;20.538;2023-05-07T11:57:20;3.22;;;1.95;;
55150;SDS011;41041;43.162;20.538;2023-05-07T11:59:47;5.15;;;2.33;;
55150;SDS011;41041;43.162;20.538;2023-05-07T12:02:17;5.32;;;2.38;;
55150;SDS011;41041;43.162;20.538;2023-05-07T12:04:43;5.60;;;2.22;;
55150;SDS011;41041;43.162;20.538;2023-05-07T12:07:12;10.57;;;2.60;;
55150;SDS011;41041;43.162;20.538;2023-05-07T12:09:39;5.03;;;1.80;;
55150;SDS011;41041;43.162;20.538;2023-05-07T12:12:05;18.58;;;3.42;;
55150;SDS011;41041;43.162;20.538;2023-05-07T12:14:31;41.15;;;3.92;;
55150;SDS011;41041;43.162;20.538;2023-05-07T12:16:58;3.00;;;1.90;;
55150;SDS011;41041;43.162;20.538;2023-05-07T12:19:28;4.97;;;3.00;;
55150;SDS011;41041;43.162;20.538;2023-05-07T12:21:55;5.28;;;2.38;;
55150;SDS011;41041;43.162;20.538;2023-05-07T12:24:21;3.83;;;2.95;;
55150;SDS011;41041;43.162;20.538;2023-05-07T12:26:47;6.25;;;3.30;;
55150;SDS011;41041;43.162;20.538;2023-05-07T12:31:49;3.38;;;2.13;;
55150;SDS011;41041;43.162;20.538;2023-05-07T12:34:15;4.00;;;2.17;;
55150;SDS011;41041;43.162;20.538;2023-05-07T12:36:42;2.60;;;1.80;;
55150;SDS011;41041;43.162;20.538;2023-05-07T12:39:08;4.57;;;2.33;;
55150;SDS011;41041;43.162;20.538;2023-05-07T12:46:58;8.00;;;3.60;;
55150;SDS011;41041;43.162;20.538;2023-05-07T12:49:26;4.00;;;2.05;;
55150;SDS011;41041;43.162;20.538;2023-05-07T12:51:53;2.85;;;1.70;;
55150;SDS011;41041;43.162;20.538;2023-05-07T12:54:32;5.32;;;2.00;;
55150;SDS011;41041;43.162;20.538;2023-05-07T12:57:05;5.40;;;1.80;;
55150;SDS011;41041;43.162;20.538;2023-05-07T12:59:38;9.00;;;1.95;;
55150;SDS011;41041;43.162;20.538;2023-05-07T13:02:08;4.68;;;1.92;;
55150;SDS011;41041;43.162;20.538;2023-05-07T13:04:34;6.93;;;2.08;;
55150;SDS011;41041;43.162;20.538;2023-05-07T13:07:00;4.90;;;1.73;;
55150;SDS011;41041;43.162;20.538;2023-05-07T13:09:27;2.80;;;1.80;;
55150;SDS011;41041;43.162;20.538;2023-05-07T13:11:56;3.30;;;1.85;;
55150;SDS011;41041;43.162;20.538;2023-05-07T13:14:25;4.85;;;1.65;;
55150;SDS011;41041;43.162;20.538;2023-05-07T13:16:50;3.35;;;1.60;;
55150;SDS011;41041;43.162;20.538;2023-05-07T13:19:16;4.40;;;1.90;;
55150;SDS011;41041;43.162;20.538;2023-05-07T13:21:42;4.60;;;2.22;;
55150;SDS011;41041;43.162;20.538;2023-05-07T13:24:08;3.72;;;1.90;;
55150;SDS011;41041;43.162;20.538;2023-05-07T13:26:34;4.40;;;1.80;;
55150;SDS011;41041;43.162;20.538;2023-05-07T13:29:00;84.43;;;5.57;;
55150;SDS011;41041;43.162;20.538;2023-05-07T13:31:30;19.30;;;2.70;;
55150;SDS011;41041;43.162;20.538;2023-05-07T13:33:55;6.65;;;2.70;;
55150;SDS011;41041;43.162;20.538;2023-05-07T13:36:21;8.27;;;2.80;;
55150;SDS011;41041;43.162;20.538;2023-05-07T13:41:41;4.78;;;2.00;;
55150;SDS011;41041;43.162;20.538;2023-05-07T13:44:12;4.00;;;1.98;;
55150;SDS011;41041;43.162;20.538;2023-05-07T13:46:38;7.30;;;2.10;;
55150;SDS011;41041;43.162;20.538;2023-05-07T13:49:04;27.58;;;2.90;;
55150;SDS011;41041;43.162;20.538;2023-05-07T13:51:30;8.27;;;2.30;;
55150;SDS011;41041;43.162;20.538;2023-05-07T13:53:56;6.40;;;2.00;;
55150;SDS011;41041;43.162;20.538;2023-05-07T13:56:23;4.60;;;1.88;;
55150;SDS011;41041;43.162;20.538;2023-05-07T13:58:49;7.90;;;2.80;;
55150;SDS011;41041;43.162;20.538;2023-05-07T14:01:37;3.13;;;2.20;;
55150;SDS011;41041;43.162;20.538;2023-05-07T14:04:03;4.20;;;2.00;;
55150;SDS011;41041;43.162;20.538;2023-05-07T14:06:29;5.38;;;2.47;;
55150;SDS011;41041;43.162;20.538;2023-05-07T14:08:55;9.05;;;1.80;;
55150;SDS011;41041;43.162;20.538;2023-05-07T14:11:23;22.17;;;9.13;;
55150;SDS011;41041;43.162;20.538;2023-05-07T14:13:52;19.80;;;3.80;;
55150;SDS011;41041;43.162;20.538;2023-05-07T14:16:21;3.63;;;2.08;;
55150;SDS011;41041;43.162;20.538;2023-05-07T14:18:47;2.60;;;1.98;;
55150;SDS011;41041;43.162;20.538;2023-05-07T14:21:14;3.83;;;1.60;;
55150;SDS011;41041;43.162;20.538;2023-05-07T14:23:40;5.13;;;1.50;;
55150;SDS011;41041;43.162;20.538;2023-05-07T14:26:05;2.80;;;1.90;;
55150;SDS011;41041;43.162;20.538;2023-05-07T14:28:38;22.48;;;2.15;;
55150;SDS011;41041;43.162;20.538;2023-05-07T14:31:04;3.90;;;1.98;;
55150;SDS011;41041;43.162;20.538;2023-05-07T14:33:31;15.40;;;2.38;;
55150;SDS011;41041;43.162;20.538;2023-05-07T14:36:15;4.47;;;1.75;;
55150;SDS011;41041;43.162;20.538;2023-05-07T14:38:41;5.95;;;1.85;;
55150;SDS011;41041;43.162;20.538;2023-05-07T14:41:06;4.95;;;2.15;;
55150;SDS011;41041;43.162;20.538;2023-05-07T14:43:36;3.53;;;1.98;;
55150;SDS011;41041;43.162;20.538;2023-05-07T14:46:05;99.63;;;5.82;;
55150;SDS011;41041;43.162;20.538;2023-05-07T14:51:45;12.32;;;2.58;;
55150;SDS011;41041;43.162;20.538;2023-05-07T14:54:11;4.72;;;2.10;;
55150;SDS011;41041;43.162;20.538;2023-05-07T14:56:38;6.40;;;2.63;;
55150;SDS011;41041;43.162;20.538;2023-05-07T14:59:09;7.38;;;2.03;;
55150;SDS011;41041;43.162;20.538;2023-05-07T15:01:35;2.65;;;1.75;;
55150;SDS011;41041;43.162;20.538;2023-05-07T15:04:02;5.88;;;2.00;;
55150;SDS011;41041;43.162;20.538;2023-05-07T15:06:29;5.82;;;2.40;;
55150;SDS011;41041;43.162;20.538;2023-05-07T15:08:55;11.93;;;2.30;;
55150;SDS011;41041;43.162;20.538;2023-05-07T15:11:21;13.77;;;2.83;;
55150;SDS011;41041;43.162;20.538;2023-05-07T15:13:49;7.93;;;2.20;;
55150;SDS011;41041;43.162;20.538;2023-05-07T15:16:15;6.97;;;2.40;;
55150;SDS011;41041;43.162;20.538;2023-05-07T15:18:42;5.65;;;2.60;;
55150;SDS011;41041;43.162;20.538;2023-05-07T15:21:08;6.95;;;2.50;;
55150;SDS011;41041;43.162;20.538;2023-05-07T15:23:34;6.38;;;1.80;;